LiveATC.Net - Listen to live air traffic control over the Internet!


ICAO: TNCA  IATA: AUA   Airport: Reina Beatrix International Airport
City: Oranjestad
Country: Aruba   Continent: South America
TNCA METAR Weather: TNCA 241800Z 09027KT 9999 FEW025 33/23 Q1011 NOSIG
TNCA Flight Activity (FlightAware)
TNCA Webcam:  (Airport Webcams) 

TNCA Twr/Apron/FIR
Feed Status: UP   Listeners: 4
Listen in your browser - HTML5 player (in browser, HTML5)
Click here to listen with your own player (launches your MP3 player)
TNCA Twr/Apron/FIR Audio Archives
FacilityFrequency
Beatrix Ground (Apron)121.600
Beatrix Tower120.900
Beatrix Tower (secondary)118.000
Curacao Control127.100
Emergency/Guard121.500
Search/Rescue123.100
NOTES: OurAirports.com

NOTICE

Unauthorized use prohibited. See LiveATC.net Terms of Service


Airport/ARTCC Code
Frequency Search
(e.g., 124.400, 128.75)
Site-wide search
 


Browse LiveATC Feeds
Top 50 LiveATC Feeds
LiveATC Feed Map
Bad Weather Areas

LiveATC FAQ
Offer LiveATC feed
Contact LiveATC.net
Press Inquiries

LiveATC on iPhone
LiveATC on Android

Windows Phone
Windows 8/10

LiveATC Mobile
(Mobile browser)

ATC Audio Archives
Interesting Recordings

LiveATC Forums


Home Page
About LiveATC.net
Make a Donation
Terms of Use
Privacy Policy

Canadian Air Freqs

AIRMETs/SIGMETs

FAA Airport Status
Nat'l Airspace Status
Arrival Demand Charts


Server Software By:
Icecast.org
Liquidsoap